Time;durP1;ratioP1;P1;durP2;ratioP2;P2;SDS_P1;SDS_P2;PMS_P1;PMS_P2;Temp;Humidity;BMP_temperature;BMP_pressure;BME280_temperature;BME280_humidity;BME280_pressure;Samples;Min_cycle;Max_cycle;Signal;HPM_P1;HPM_P2
2022/03/23 00:01:23;;;;;;;7.63;4.40;;;20.40;40.70;;;;;;5090901;28;20472;-68
2022/03/23 00:03:49;;;;;;;12.40;3.20;;;20.40;40.80;;;;;;5091307;28;20418;-68
2022/03/23 00:06:15;;;;;;;7.07;4.07;;;20.40;41.30;;;;;;5091319;28;20263;-70
2022/03/23 00:08:41;;;;;;;4.27;3.37;;;20.40;41.60;;;;;;5090956;28;20168;-69
2022/03/23 00:11:06;;;;;;;5.90;3.50;;;20.40;41.00;;;;;;5090828;28;20861;-69
2022/03/23 00:13:32;;;;;;;4.90;3.30;;;20.40;40.50;;;;;;5091252;28;20172;-69
2022/03/23 00:15:58;;;;;;;9.73;5.07;;;20.40;40.50;;;;;;5091492;28;20182;-68
2022/03/23 00:18:24;;;;;;;6.43;3.90;;;20.40;40.80;;;;;;5092965;28;20178;-66
2022/03/23 00:20:50;;;;;;;7.10;3.80;;;20.40;40.70;;;;;;5094866;28;20856;-68
2022/03/23 00:23:16;;;;;;;6.47;3.83;;;20.40;40.70;;;;;;5094984;28;20428;-67
2022/03/23 00:25:42;;;;;;;8.03;4.63;;;20.30;40.70;;;;;;5095127;28;20242;-68
2022/03/23 00:28:07;;;;;;;9.50;3.93;;;20.30;40.70;;;;;;5094881;28;20680;-67
2022/03/23 00:30:34;;;;;;;7.53;4.70;;;20.30;40.70;;;;;;5094047;28;20215;-68
2022/03/23 00:33:02;;;;;;;7.60;4.30;;;20.30;40.80;;;;;;5094926;28;20217;-67
2022/03/23 00:35:31;;;;;;;8.10;4.70;;;20.30;41.00;;;;;;5094836;28;20422;-70
2022/03/23 00:37:58;;;;;;;7.67;4.37;;;20.30;40.90;;;;;;5094683;28;20448;-67
2022/03/23 00:40:25;;;;;;;12.83;4.60;;;20.30;40.70;;;;;;5093969;28;20421;-66
2022/03/23 00:42:50;;;;;;;7.53;4.33;;;20.30;40.90;;;;;;5094372;28;20405;-70
2022/03/23 00:45:17;;;;;;;7.13;4.83;;;20.30;41.00;;;;;;5094428;28;20425;-69
2022/03/23 00:47:43;;;;;;;10.30;4.17;;;20.30;41.00;;;;;;5094572;28;20172;-68
2022/03/23 00:50:09;;;;;;;8.63;4.80;;;20.20;41.00;;;;;;5093769;28;20463;-67
2022/03/23 00:52:37;;;;;;;6.53;4.37;;;20.20;41.10;;;;;;5094083;28;20519;-69
2022/03/23 00:55:04;;;;;;;6.97;4.10;;;20.20;40.90;;;;;;5094428;28;20463;-67
2022/03/23 00:57:29;;;;;;;6.10;4.30;;;20.30;41.00;;;;;;5094252;28;20414;-68
2022/03/23 00:59:55;;;;;;;5.60;4.07;;;20.20;41.20;;;;;;5093639;28;20421;-67
2022/03/23 01:02:21;;;;;;;6.67;4.30;;;20.20;41.00;;;;;;5094109;28;20211;-67
2022/03/23 01:04:47;;;;;;;6.43;4.50;;;20.20;41.00;;;;;;5094180;28;20600;-67
2022/03/23 01:07:12;;;;;;;8.33;4.40;;;20.20;41.00;;;;;;5094037;28;20207;-67
2022/03/23 01:09:38;;;;;;;7.43;4.70;;;20.20;41.00;;;;;;5093391;28;20203;-68
2022/03/23 01:12:04;;;;;;;7.27;5.00;;;20.20;41.10;;;;;;5093876;28;20659;-67
2022/03/23 01:14:30;;;;;;;7.40;4.50;;;20.10;41.10;;;;;;5093821;28;20643;-67
2022/03/23 01:16:55;;;;;;;9.63;4.43;;;20.20;41.20;;;;;;5093994;28;20414;-68
2022/03/23 01:19:25;;;;;;;6.33;4.40;;;20.10;41.20;;;;;;5093214;28;20176;-69
2022/03/23 01:21:51;;;;;;;13.70;4.37;;;20.10;41.20;;;;;;5093762;28;20227;-69
2022/03/23 01:24:17;;;;;;;8.40;4.70;;;20.10;41.10;;;;;;5093684;28;20414;-67
2022/03/23 01:26:43;;;;;;;6.23;4.40;;;20.10;41.30;;;;;;5093588;28;20421;-68
2022/03/23 01:29:09;;;;;;;8.40;5.57;;;20.10;41.10;;;;;;5092785;28;20763;-68
2022/03/23 01:31:34;;;;;;;7.60;4.60;;;20.10;41.20;;;;;;5092994;28;20265;-68
2022/03/23 01:34:00;;;;;;;6.77;4.73;;;20.10;41.20;;;;;;5094748;28;20164;-67
2022/03/23 01:36:30;;;;;;;6.33;4.40;;;20.10;41.20;;;;;;5093570;28;20180;-67
2022/03/23 01:38:58;;;;;;;8.30;4.97;;;20.10;41.20;;;;;;5092819;28;20508;-68
2022/03/23 01:41:24;;;;;;;7.47;4.70;;;20.10;41.10;;;;;;5093273;28;20445;-67
2022/03/23 01:43:50;;;;;;;9.33;5.30;;;20.10;41.10;;;;;;5093255;28;20398;-68
2022/03/23 01:46:17;;;;;;;9.80;4.50;;;20.10;41.20;;;;;;5093180;28;20425;-67
2022/03/23 01:48:44;;;;;;;10.13;4.80;;;20.10;41.30;;;;;;5092969;28;20491;-67
2022/03/23 01:51:11;;;;;;;7.73;5.20;;;20.10;41.20;;;;;;5093050;28;20448;-66
2022/03/23 01:53:37;;;;;;;9.80;4.80;;;20.10;41.10;;;;;;5093043;28;20472;-67
2022/03/23 01:56:03;;;;;;;7.00;4.67;;;20.10;41.20;;;;;;5093084;28;20406;-66
2022/03/23 01:58:29;;;;;;;7.23;4.67;;;20.10;41.10;;;;;;5092677;28;20917;-67
2022/03/23 02:00:55;;;;;;;8.17;4.30;;;20.10;41.20;;;;;;5092547;28;20422;-67
2022/03/23 02:03:20;;;;;;;13.23;4.77;;;20.10;41.10;;;;;;5092658;28;20192;-67
2022/03/23 02:05:48;;;;;;;8.57;5.00;;;20.00;41.00;;;;;;5092959;28;20180;-67
2022/03/23 02:08:15;;;;;;;9.43;5.37;;;20.00;41.00;;;;;;5093059;28;20186;-67
2022/03/23 02:10:41;;;;;;;8.20;4.87;;;20.00;40.80;;;;;;5092263;28;20547;-67
2022/03/23 02:13:09;;;;;;;7.80;4.63;;;20.00;41.00;;;;;;5092952;28;20414;-67
2022/03/23 02:15:35;;;;;;;7.30;4.33;;;20.00;40.90;;;;;;5092788;28;20501;-66
2022/03/23 02:18:02;;;;;;;7.57;4.70;;;20.00;40.80;;;;;;5092682;28;20506;-68
2022/03/23 02:20:27;;;;;;;8.53;5.00;;;20.00;41.00;;;;;;5092175;28;20418;-67
2022/03/23 02:22:54;;;;;;;8.40;5.47;;;20.00;40.90;;;;;;5092402;28;20981;-68
2022/03/23 02:25:25;;;;;;;8.53;5.37;;;20.00;40.80;;;;;;5092406;28;20172;-65
2022/03/23 02:27:52;;;;;;;10.93;5.30;;;20.00;41.10;;;;;;5092758;28;20406;-66
2022/03/23 02:30:18;;;;;;;8.77;5.50;;;20.00;41.60;;;;;;5092238;28;20464;-67
2022/03/23 02:32:45;;;;;;;8.83;4.40;;;20.00;41.10;;;;;;5092554;28;20773;-67
2022/03/23 02:35:11;;;;;;;7.37;5.10;;;20.00;41.10;;;;;;5092639;28;20410;-69
2022/03/23 02:37:40;;;;;;;8.40;4.90;;;20.00;41.30;;;;;;5092510;28;21043;-66
2022/03/23 02:40:11;;;;;;;12.30;5.40;;;20.00;41.20;;;;;;5091399;28;20410;-67
2022/03/23 02:42:38;;;;;;;8.30;5.17;;;20.00;41.20;;;;;;5092433;28;20952;-67
2022/03/23 02:45:05;;;;;;;7.90;5.23;;;20.00;41.30;;;;;;5092113;28;20422;-68
2022/03/23 02:47:30;;;;;;;9.80;5.40;;;20.00;40.90;;;;;;5092199;28;20414;-66
2022/03/23 02:49:57;;;;;;;10.83;5.17;;;20.00;41.20;;;;;;5091956;28;20465;-67
2022/03/23 02:52:22;;;;;;;10.07;5.33;;;20.00;41.30;;;;;;5091850;28;20683;-66
2022/03/23 03:03:55;;;;;;;9.33;4.83;;;19.90;40.90;;;;;;5007494;28;20432;-68
2022/03/23 03:06:20;;;;;;;19.83;5.63;;;19.90;41.10;;;;;;5091918;28;20512;-68
2022/03/23 03:08:47;;;;;;;10.03;5.37;;;19.90;41.20;;;;;;5091584;28;20196;-69
2022/03/23 03:11:14;;;;;;;9.20;5.37;;;19.90;41.30;;;;;;5091742;28;20191;-68
2022/03/23 03:13:41;;;;;;;7.60;5.17;;;19.90;41.30;;;;;;5091642;28;20432;-68
2022/03/23 03:16:07;;;;;;;6.30;5.10;;;19.90;41.10;;;;;;5091693;28;20409;-67
2022/03/23 03:18:35;;;;;;;8.50;5.47;;;19.90;41.30;;;;;;5091467;28;20406;-68
2022/03/23 03:21:06;;;;;;;7.23;5.23;;;19.90;41.20;;;;;;5091538;28;20663;-69
2022/03/23 03:23:33;;;;;;;8.27;5.47;;;19.90;41.20;;;;;;5091716;28;20547;-68
2022/03/23 03:26:01;;;;;;;7.97;5.30;;;19.80;41.00;;;;;;5091296;28;20913;-69
2022/03/23 03:28:27;;;;;;;8.13;4.80;;;19.90;41.10;;;;;;5091231;28;20488;-68
2022/03/23 03:30:53;;;;;;;8.23;4.67;;;19.90;41.00;;;;;;5091357;28;20457;-68
2022/03/23 03:33:18;;;;;;;20.13;6.13;;;19.90;41.00;;;;;;5091741;28;20428;-67
2022/03/23 03:35:44;;;;;;;7.67;5.30;;;19.80;41.60;;;;;;5092539;28;20172;-69
2022/03/23 03:38:10;;;;;;;7.30;4.87;;;19.80;41.10;;;;;;5091616;28;20884;-68
2022/03/23 03:40:36;;;;;;;10.50;5.30;;;19.80;41.20;;;;;;5092557;28;20205;-69
2022/03/23 03:43:02;;;;;;;12.07;5.30;;;19.80;41.30;;;;;;5091612;28;20861;-69
2022/03/23 03:45:28;;;;;;;7.63;5.20;;;19.80;41.10;;;;;;5091338;28;20183;-67
2022/03/23 03:47:53;;;;;;;8.53;4.83;;;19.80;41.10;;;;;;5091287;28;20747;-66
2022/03/23 03:50:19;;;;;;;7.13;5.07;;;19.80;41.30;;;;;;5091029;28;20222;-68
2022/03/23 03:52:45;;;;;;;7.30;5.20;;;19.80;41.40;;;;;;5094051;28;20252;-67
2022/03/23 03:55:10;;;;;;;14.17;5.47;;;19.80;41.20;;;;;;5095683;28;20241;-67
2022/03/23 03:57:36;;;;;;;6.83;4.57;;;19.80;41.60;;;;;;5096722;28;20183;-70
2022/03/23 04:00:03;;;;;;;7.67;4.90;;;19.80;42.10;;;;;;5094338;28;20179;-65
2022/03/23 04:02:29;;;;;;;11.37;4.73;;;19.90;40.90;;;;;;5094979;28;20555;-66
2022/03/23 04:04:54;;;;;;;14.23;4.77;;;19.90;40.60;;;;;;5096532;28;20439;-68
2022/03/23 04:07:20;;;;;;;7.83;4.53;;;19.90;40.80;;;;;;5096928;28;20190;-66
2022/03/23 04:09:45;;;;;;;8.17;4.90;;;19.80;40.80;;;;;;5094316;28;20210;-66
2022/03/23 04:12:11;;;;;;;8.40;5.00;;;19.80;41.00;;;;;;5095217;28;20663;-68
2022/03/23 04:14:36;;;;;;;7.70;5.70;;;19.80;41.00;;;;;;5095044;28;20244;-69
2022/03/23 04:17:03;;;;;;;10.50;5.23;;;19.80;41.20;;;;;;5095241;28;20306;-68
2022/03/23 04:19:28;;;;;;;7.37;4.63;;;19.80;41.30;;;;;;5094825;28;20211;-69
2022/03/23 04:21:54;;;;;;;7.47;5.40;;;19.80;41.30;;;;;;5095259;28;20876;-68
2022/03/23 04:24:20;;;;;;;10.53;6.07;;;19.80;41.10;;;;;;5095158;28;20179;-67
2022/03/23 04:26:46;;;;;;;7.40;5.50;;;19.80;41.20;;;;;;5095102;28;20619;-67
2022/03/23 04:29:12;;;;;;;12.90;5.80;;;19.70;41.00;;;;;;5094534;28;20233;-67
2022/03/23 04:31:37;;;;;;;7.30;5.37;;;19.80;41.30;;;;;;5095135;28;20274;-68
2022/03/23 04:34:03;;;;;;;7.50;5.10;;;19.70;41.00;;;;;;5094860;28;20593;-68
2022/03/23 04:36:29;;;;;;;8.23;5.87;;;19.70;40.90;;;;;;5095065;28;20210;-69
2022/03/23 04:38:55;;;;;;;7.80;4.73;;;19.80;40.80;;;;;;5094656;28;20245;-68
2022/03/23 04:41:20;;;;;;;8.60;5.77;;;19.80;40.80;;;;;;5094696;28;20563;-69
2022/03/23 04:43:46;;;;;;;13.50;4.97;;;19.80;40.90;;;;;;5094755;28;20494;-67
2022/03/23 04:46:13;;;;;;;7.33;5.03;;;19.80;40.70;;;;;;5094643;28;20183;-68
2022/03/23 04:48:39;;;;;;;10.20;6.53;;;19.80;40.80;;;;;;5094526;28;20640;-66
2022/03/23 04:51:05;;;;;;;11.90;5.53;;;19.80;40.40;;;;;;5094188;28;20535;-67
2022/03/23 04:53:31;;;;;;;14.47;6.30;;;19.80;40.40;;;;;;5094426;28;20172;-68
2022/03/23 04:55:56;;;;;;;11.57;6.30;;;19.90;40.30;;;;;;5094312;28;20647;-66
2022/03/23 04:58:22;;;;;;;14.57;6.43;;;19.90;40.40;;;;;;5094325;28;20167;-69
2022/03/23 05:00:48;;;;;;;8.40;5.70;;;19.80;40.40;;;;;;5094936;28;20212;-69
2022/03/23 05:03:13;;;;;;;9.97;5.87;;;19.90;40.20;;;;;;5093203;28;20274;-68
2022/03/23 05:05:39;;;;;;;12.20;5.87;;;19.90;40.30;;;;;;5094185;28;20175;-68
2022/03/23 05:08:05;;;;;;;8.80;5.00;;;19.90;40.40;;;;;;5093932;28;20195;-69
2022/03/23 05:10:31;;;;;;;9.20;5.50;;;20.00;40.20;;;;;;5093054;28;20547;-69
2022/03/23 05:12:57;;;;;;;11.00;5.70;;;20.20;40.40;;;;;;5092769;28;20180;-70
2022/03/23 05:15:23;;;;;;;7.50;5.53;;;20.00;40.20;;;;;;5093659;28;20186;-69
2022/03/23 05:17:49;;;;;;;7.87;5.37;;;20.00;40.00;;;;;;5093633;28;20414;-67
2022/03/23 05:20:17;;;;;;;9.67;5.13;;;20.10;40.00;;;;;;5092942;28;20183;-67
2022/03/23 05:22:43;;;;;;;9.63;6.13;;;20.10;40.10;;;;;;5093484;28;20180;-68
2022/03/23 05:25:09;;;;;;;9.30;5.90;;;20.00;40.20;;;;;;5092549;28;20562;-69
2022/03/23 05:27:37;;;;;;;10.10;6.20;;;20.10;39.90;;;;;;5093479;28;20176;-67
2022/03/23 05:30:05;;;;;;;10.73;6.30;;;20.10;39.90;;;;;;5088269;28;20453;-69
2022/03/23 05:32:31;;;;;;;7.87;5.50;;;20.10;39.90;;;;;;5089839;28;20996;-68
2022/03/23 05:34:58;;;;;;;10.20;5.40;;;20.00;39.90;;;;;;5093364;28;20510;-69
2022/03/23 05:37:23;;;;;;;7.60;4.80;;;20.00;39.70;;;;;;5095234;28;20501;-69
2022/03/23 05:39:50;;;;;;;10.00;5.80;;;20.00;39.90;;;;;;5092907;28;20976;-69
2022/03/23 05:42:15;;;;;;;8.90;5.00;;;20.00;39.80;;;;;;5093639;28;20754;-67
2022/03/23 05:44:41;;;;;;;9.07;5.30;;;20.00;40.00;;;;;;5093485;28;20518;-69
2022/03/23 05:47:07;;;;;;;10.53;6.40;;;20.00;40.10;;;;;;5089470;28;20205;-69
2022/03/23 05:49:33;;;;;;;14.90;6.00;;;20.00;40.10;;;;;;5090396;28;20294;-67
2022/03/23 05:51:59;;;;;;;8.63;5.47;;;20.00;40.00;;;;;;5086431;28;20215;-66
2022/03/23 05:54:25;;;;;;;9.93;6.00;;;20.00;40.20;;;;;;5076315;28;20555;-67
2022/03/23 05:56:51;;;;;;;13.37;6.80;;;20.00;40.20;;;;;;5093173;28;20957;-69
2022/03/23 05:59:18;;;;;;;10.07;5.53;;;20.00;40.00;;;;;;5092946;28;20183;-67
2022/03/23 06:01:44;;;;;;;11.93;6.90;;;20.00;40.60;;;;;;5093148;28;20453;-67
2022/03/23 06:04:09;;;;;;;12.83;5.77;;;20.00;40.40;;;;;;5090333;28;21051;-68
2022/03/23 06:06:35;;;;;;;10.77;6.13;;;20.00;40.40;;;;;;5089293;28;20280;-65
2022/03/23 06:09:01;;;;;;;12.27;6.70;;;20.00;40.40;;;;;;5084817;28;20180;-67
2022/03/23 06:11:26;;;;;;;10.00;6.00;;;19.90;40.50;;;;;;5090411;28;20222;-66
2022/03/23 06:13:52;;;;;;;10.50;6.37;;;19.90;40.20;;;;;;5092156;28;20652;-67
2022/03/23 06:16:18;;;;;;;16.63;6.43;;;19.90;40.10;;;;;;5074353;28;20179;-66
2022/03/23 06:18:43;;;;;;;11.23;6.37;;;20.00;40.30;;;;;;5080568;28;20187;-68
2022/03/23 06:21:09;;;;;;;17.80;6.60;;;20.00;40.30;;;;;;5090542;28;20286;-66
2022/03/23 06:23:35;;;;;;;13.90;6.30;;;19.90;40.30;;;;;;5088170;28;20186;-67
2022/03/23 06:26:03;;;;;;;21.40;6.80;;;20.00;40.50;;;;;;5090036;28;20179;-67
2022/03/23 06:28:29;;;;;;;10.07;6.60;;;19.90;39.50;;;;;;5088963;28;20186;-66
2022/03/23 06:30:54;;;;;;;10.37;6.83;;;19.90;39.50;;;;;;5091794;28;20461;-67
2022/03/23 06:33:20;;;;;;;10.73;6.20;;;19.90;38.80;;;;;;5090204;28;20211;-70
2022/03/23 06:35:47;;;;;;;11.33;7.23;;;19.90;38.80;;;;;;5085601;28;20574;-71
2022/03/23 06:38:13;;;;;;;10.93;5.67;;;20.10;39.20;;;;;;5092031;28;20461;-68
2022/03/23 06:40:39;;;;;;;13.37;5.90;;;20.20;39.40;;;;;;5091736;28;20495;-69
2022/03/23 06:43:05;;;;;;;15.30;5.93;;;20.30;39.50;;;;;;5092284;28;20909;-70
2022/03/23 06:45:31;;;;;;;15.60;6.43;;;20.20;39.40;;;;;;5092374;28;20409;-70
2022/03/23 06:47:57;;;;;;;15.53;5.70;;;20.30;39.80;;;;;;5092439;28;20279;-69
2022/03/23 06:50:23;;;;;;;14.20;6.50;;;20.30;40.10;;;;;;5091965;28;20779;-70
2022/03/23 06:52:49;;;;;;;11.83;4.93;;;20.40;40.10;;;;;;5092416;28;20409;-71
2022/03/23 06:55:15;;;;;;;9.73;5.80;;;20.40;39.60;;;;;;5092234;28;20425;-71
2022/03/23 06:57:41;;;;;;;9.50;5.53;;;20.50;39.20;;;;;;5092349;28;20258;-71
2022/03/23 07:00:13;;;;;;;8.70;5.60;;;20.50;39.70;;;;;;5091787;28;20289;-70
2022/03/23 07:02:49;;;;;;;9.37;5.20;;;20.50;39.90;;;;;;5092068;28;20441;-69
2022/03/23 07:05:17;;;;;;;10.37;5.27;;;20.50;39.80;;;;;;5092217;28;20416;-68
2022/03/23 07:10:28;;;;;;;7.33;4.40;;;20.60;41.20;;;;;;5093094;28;20993;-68
2022/03/23 07:12:54;;;;;;;7.80;4.23;;;20.70;40.90;;;;;;5092101;28;20422;-68
2022/03/23 07:15:20;;;;;;;17.60;5.30;;;20.70;41.30;;;;;;5092168;28;20316;-72
2022/03/23 07:17:45;;;;;;;7.43;4.70;;;20.80;40.30;;;;;;5091995;28;20508;-69
2022/03/23 07:20:11;;;;;;;7.27;4.70;;;20.80;40.50;;;;;;5091505;28;20178;-69
2022/03/23 07:22:37;;;;;;;7.93;4.27;;;20.90;39.10;;;;;;5092152;28;20670;-70
2022/03/23 07:25:05;;;;;;;15.37;4.30;;;20.90;41.40;;;;;;5093422;28;20175;-71
2022/03/23 07:27:30;;;;;;;10.40;4.30;;;21.00;41.50;;;;;;5091507;28;20471;-71
2022/03/23 07:29:56;;;;;;;14.77;4.00;;;21.10;41.10;;;;;;5091323;28;20454;-70
2022/03/23 07:32:22;;;;;;;10.13;4.60;;;21.20;42.60;;;;;;5091766;28;20223;-68
2022/03/23 07:34:48;;;;;;;7.47;3.83;;;21.40;42.00;;;;;;5088314;28;20571;-70
2022/03/23 07:37:14;;;;;;;8.30;4.20;;;21.50;42.00;;;;;;5088386;28;20194;-70
2022/03/23 07:39:40;;;;;;;10.70;4.30;;;21.60;42.10;;;;;;5089196;28;20225;-70
2022/03/23 07:42:06;;;;;;;4.60;3.60;;;21.70;42.10;;;;;;5088584;28;20441;-70
2022/03/23 07:44:32;;;;;;;10.40;4.10;;;21.70;42.10;;;;;;5089385;28;20418;-69
2022/03/23 07:46:58;;;;;;;7.90;4.10;;;21.80;42.20;;;;;;5088608;28;20205;-67
2022/03/23 07:49:24;;;;;;;9.33;3.70;;;21.80;42.10;;;;;;5088095;28;20453;-70
2022/03/23 07:51:50;;;;;;;5.30;3.43;;;21.90;42.00;;;;;;5089289;28;20483;-68
2022/03/23 07:54:16;;;;;;;10.67;3.70;;;21.90;42.30;;;;;;5090131;28;20225;-71
2022/03/23 07:56:41;;;;;;;7.97;3.33;;;21.90;42.30;;;;;;5088695;28;20513;-67
2022/03/23 07:59:07;;;;;;;6.43;3.30;;;22.00;42.40;;;;;;5088626;28;20271;-69
2022/03/23 08:01:33;;;;;;;7.93;3.37;;;22.00;42.40;;;;;;5088101;28;20211;-68
2022/03/23 08:03:59;;;;;;;11.20;3.53;;;22.10;42.50;;;;;;5089109;28;20275;-69
2022/03/23 08:06:26;;;;;;;5.30;3.70;;;22.10;42.40;;;;;;5089859;28;20684;-69
2022/03/23 08:08:52;;;;;;;11.47;3.70;;;22.10;42.20;;;;;;5089860;28;20409;-69
2022/03/23 08:11:18;;;;;;;5.20;3.60;;;22.10;42.10;;;;;;5090989;28;20469;-70
2022/03/23 08:13:43;;;;;;;9.00;4.17;;;22.00;42.30;;;;;;5091488;28;20616;-69
2022/03/23 08:16:09;;;;;;;8.03;4.00;;;22.00;42.10;;;;;;5091130;28;20421;-68
2022/03/23 08:18:35;;;;;;;7.27;4.47;;;22.00;42.40;;;;;;5090899;28;20175;-67
2022/03/23 08:21:01;;;;;;;13.07;5.90;;;22.00;42.40;;;;;;5090973;28;20200;-71
2022/03/23 08:23:30;;;;;;;13.83;5.40;;;22.00;42.30;;;;;;5091229;28;20890;-69
2022/03/23 08:25:56;;;;;;;9.03;5.33;;;21.90;42.20;;;;;;5091192;28;20455;-70
2022/03/23 08:28:21;;;;;;;13.83;5.20;;;21.90;42.20;;;;;;5091091;28;20412;-70
2022/03/23 08:30:47;;;;;;;12.70;5.50;;;21.90;42.00;;;;;;5090760;28;20552;-69
2022/03/23 08:33:13;;;;;;;9.90;5.80;;;21.90;42.00;;;;;;5091072;28;20172;-71
2022/03/23 08:35:39;;;;;;;8.97;6.07;;;21.90;41.90;;;;;;5091090;28;20166;-70
2022/03/23 08:38:06;;;;;;;9.23;5.77;;;21.90;41.80;;;;;;5091174;28;20648;-70
2022/03/23 08:40:32;;;;;;;9.90;5.00;;;21.90;41.90;;;;;;5094522;28;20910;-71
2022/03/23 08:42:58;;;;;;;8.33;5.30;;;21.90;41.40;;;;;;5094888;28;20463;-69
2022/03/23 08:45:24;;;;;;;9.53;5.53;;;21.90;41.50;;;;;;5094576;28;20751;-70
2022/03/23 08:47:51;;;;;;;10.10;5.70;;;21.90;41.60;;;;;;5094734;28;20410;-70
2022/03/23 08:50:17;;;;;;;8.33;5.03;;;21.90;41.20;;;;;;5094121;28;20453;-70
2022/03/23 08:52:43;;;;;;;18.40;5.63;;;22.00;41.60;;;;;;5094736;28;20406;-70
2022/03/23 08:55:14;;;;;;;12.57;6.23;;;22.00;42.10;;;;;;5094484;28;20425;-71
2022/03/23 08:57:40;;;;;;;10.70;6.00;;;22.00;42.30;;;;;;5094579;28;20765;-71
2022/03/23 09:00:08;;;;;;;14.00;6.00;;;22.00;42.50;;;;;;5094158;28;20429;-70
2022/03/23 09:02:34;;;;;;;13.33;6.13;;;22.00;42.60;;;;;;5094226;28;20481;-71
2022/03/23 09:04:59;;;;;;;12.03;5.60;;;22.10;42.60;;;;;;5094423;28;20948;-68
2022/03/23 09:07:25;;;;;;;13.13;6.83;;;22.10;42.50;;;;;;5094390;28;20179;-72
2022/03/23 09:09:51;;;;;;;17.93;7.10;;;22.20;41.40;;;;;;5093698;28;20614;-73
2022/03/23 09:12:17;;;;;;;17.13;7.60;;;22.20;41.20;;;;;;5094200;28;20202;-72
2022/03/23 09:14:43;;;;;;;16.83;7.67;;;22.20;40.70;;;;;;5094116;28;20410;-71
2022/03/23 09:17:08;;;;;;;15.90;7.50;;;22.30;40.60;;;;;;5095427;28;20258;-71
2022/03/23 09:19:34;;;;;;;14.13;8.30;;;22.30;40.50;;;;;;5093722;28;20474;-72
2022/03/23 09:22:00;;;;;;;20.77;8.13;;;22.50;41.00;;;;;;5094038;28;20282;-73
2022/03/23 09:24:27;;;;;;;11.63;7.53;;;22.50;40.10;;;;;;5094165;28;20183;-73
2022/03/23 09:26:55;;;;;;;13.40;6.73;;;22.60;39.90;;;;;;5093961;28;20214;-72
2022/03/23 09:29:21;;;;;;;16.83;6.63;;;22.70;39.80;;;;;;5093176;28;20425;-73
2022/03/23 09:31:47;;;;;;;16.20;7.10;;;22.70;39.60;;;;;;5093710;28;20981;-73
2022/03/23 09:34:13;;;;;;;11.23;6.97;;;22.80;39.60;;;;;;5093561;28;20429;-72
2022/03/23 09:39:23;;;;;;;10.90;7.00;;;22.90;39.40;;;;;;5094698;28;20534;-71
2022/03/23 09:41:49;;;;;;;18.77;7.10;;;22.90;39.30;;;;;;5093330;28;20519;-72
2022/03/23 09:44:15;;;;;;;13.83;7.70;;;22.90;39.20;;;;;;5093454;28;20274;-72
2022/03/23 09:46:43;;;;;;;26.63;8.50;;;22.90;39.30;;;;;;5093506;28;20504;-70
2022/03/23 09:49:09;;;;;;;13.80;7.87;;;23.00;38.80;;;;;;5092754;28;20444;-70
2022/03/23 09:51:37;;;;;;;27.87;9.40;;;23.00;38.90;;;;;;5093077;28;20925;-70
2022/03/23 09:54:04;;;;;;;25.90;10.13;;;23.00;36.40;;;;;;5093661;28;20536;-71
2022/03/23 09:56:30;;;;;;;18.57;10.07;;;23.00;35.60;;;;;;5093687;28;20497;-71
2022/03/23 09:58:56;;;;;;;12.40;7.97;;;23.00;35.50;;;;;;5093182;28;20998;-70
2022/03/23 10:01:47;;;;;;;11.90;8.60;;;23.00;36.70;;;;;;5093177;28;20216;-68
2022/03/23 10:04:13;;;;;;;12.00;7.80;;;23.10;35.70;;;;;;5055460;28;20183;-71
2022/03/23 10:07:18;;;;;;;13.60;9.10;;;23.10;36.70;;;;;;5093294;28;20414;-70
2022/03/23 10:10:03;;;;;;;10.67;7.53;;;23.10;35.60;;;;;;5092604;28;20199;-72
2022/03/23 10:12:53;;;;;;;10.00;7.70;;;23.10;36.60;;;;;;5092978;28;20491;-70
2022/03/23 10:16:16;;;;;;;14.63;10.43;;;23.10;37.00;;;;;;5093124;28;20432;-71
2022/03/23 10:19:11;;;;;;;13.70;7.43;;;23.10;33.60;;;;;;5092497;28;20943;-71
2022/03/23 10:21:41;;;;;;;11.93;7.63;;;23.10;35.90;;;;;;5075634;28;20440;-71
2022/03/23 10:24:07;;;;;;;10.70;7.40;;;23.10;36.70;;;;;;5092889;28;20416;-69
2022/03/23 10:26:36;;;;;;;10.83;7.50;;;23.10;36.80;;;;;;5092692;28;20409;-70
2022/03/23 10:29:02;;;;;;;8.47;7.03;;;23.20;36.80;;;;;;5092277;28;20179;-69
2022/03/23 10:31:28;;;;;;;11.73;7.63;;;23.10;36.70;;;;;;5092531;28;20481;-69
2022/03/23 10:33:57;;;;;;;10.90;7.17;;;23.20;36.50;;;;;;5094078;28;20512;-70
2022/03/23 10:36:26;;;;;;;11.67;7.13;;;23.20;36.70;;;;;;5092729;28;20908;-69
2022/03/23 10:38:59;;;;;;;9.97;6.80;;;23.20;36.10;;;;;;5092326;28;20462;-69
2022/03/23 10:41:26;;;;;;;10.57;7.13;;;23.20;36.20;;;;;;5092757;28;20433;-70
2022/03/23 10:43:52;;;;;;;11.53;6.90;;;23.20;36.10;;;;;;5092691;28;20413;-70
2022/03/23 10:46:20;;;;;;;9.10;6.43;;;23.20;36.20;;;;;;5092600;28;20409;-71
2022/03/23 10:49:13;;;;;;;9.93;6.57;;;23.30;36.30;;;;;;5092211;28;20631;-71
2022/03/23 10:51:41;;;;;;;8.37;6.47;;;23.30;36.20;;;;;;5089027;28;20456;-70
2022/03/23 10:54:33;;;;;;;10.33;6.40;;;23.30;35.90;;;;;;5093426;28;20451;-70
2022/03/23 10:56:59;;;;;;;10.60;7.00;;;23.20;36.00;;;;;;5090397;28;20416;-70
2022/03/23 10:59:26;;;;;;;7.47;5.27;;;23.20;33.30;;;;;;5091534;28;20409;-71
2022/03/23 11:02:04;;;;;;;6.70;5.20;;;23.20;35.00;;;;;;5091330;28;20310;-71
2022/03/23 11:04:53;;;;;;;9.73;5.60;;;23.20;35.10;;;;;;5092095;28;20458;-73
2022/03/23 11:07:35;;;;;;;9.10;5.10;;;23.20;35.40;;;;;;5092161;28;20440;-71
2022/03/23 11:15:47;;;;;;;8.80;5.30;;;23.20;35.90;;;;;;5093705;28;20413;-70
2022/03/23 11:18:17;;;;;;;6.00;4.67;;;23.20;35.60;;;;;;5092154;28;20419;-70
2022/03/23 11:20:56;;;;;;;9.20;6.03;;;23.10;35.40;;;;;;5091465;28;20433;-69
2022/03/23 11:23:30;;;;;;;6.50;4.97;;;23.10;35.20;;;;;;5091952;28;20424;-70
2022/03/23 11:26:00;;;;;;;9.07;5.17;;;23.10;35.00;;;;;;5092974;28;20979;-71
2022/03/23 11:28:28;;;;;;;6.50;4.70;;;23.10;35.00;;;;;;5091514;28;20424;-69
2022/03/23 11:30:55;;;;;;;6.50;4.97;;;23.10;34.70;;;;;;5091500;28;20468;-70
2022/03/23 11:33:23;;;;;;;6.00;4.83;;;23.00;34.70;;;;;;5091721;28;20484;-70
2022/03/23 11:35:51;;;;;;;7.30;5.30;;;23.10;34.50;;;;;;5091915;28;20413;-70
2022/03/23 11:38:26;;;;;;;5.73;4.43;;;23.10;33.80;;;;;;5091617;28;20405;-70
2022/03/23 11:40:52;;;;;;;9.97;5.60;;;23.00;33.40;;;;;;5091526;28;20433;-70
2022/03/23 11:43:23;;;;;;;11.33;5.20;;;23.00;33.60;;;;;;5091409;28;20417;-70
2022/03/23 11:45:51;;;;;;;5.63;4.70;;;23.00;34.00;;;;;;5091582;28;20425;-70
2022/03/23 11:48:26;;;;;;;7.50;5.07;;;22.90;33.80;;;;;;5091627;28;20812;-69
2022/03/23 11:51:21;;;;;;;8.50;5.30;;;22.90;33.80;;;;;;5091394;28;20457;-69
2022/03/23 11:53:52;;;;;;;6.77;4.53;;;22.90;34.00;;;;;;5091524;28;20521;-70
2022/03/23 11:56:37;;;;;;;12.80;5.40;;;22.90;33.80;;;;;;5091600;28;20906;-69
2022/03/23 11:59:28;;;;;;;14.70;5.67;;;22.80;33.50;;;;;;5091078;28;20532;-68
2022/03/23 12:01:55;;;;;;;9.53;5.37;;;22.80;33.40;;;;;;5090878;28;20491;-68
2022/03/23 12:04:25;;;;;;;9.70;4.90;;;22.80;33.80;;;;;;5091038;28;20442;-68
2022/03/23 12:07:01;;;;;;;11.50;5.33;;;22.80;34.00;;;;;;5090958;28;20416;-68
2022/03/23 12:09:37;;;;;;;10.63;5.47;;;22.80;33.70;;;;;;5090880;28;20412;-68
2022/03/23 12:12:11;;;;;;;11.10;6.73;;;22.70;33.80;;;;;;5091361;28;20425;-69
2022/03/23 12:14:39;;;;;;;7.50;4.97;;;22.70;33.70;;;;;;5093987;28;20512;-69
2022/03/23 12:17:18;;;;;;;14.03;5.93;;;22.70;33.80;;;;;;5095485;28;20437;-69
2022/03/23 12:19:58;;;;;;;12.93;5.90;;;22.70;33.80;;;;;;5094861;28;20441;-69
2022/03/23 12:22:41;;;;;;;9.80;5.37;;;22.70;34.00;;;;;;5095151;28;20433;-70
2022/03/23 12:25:23;;;;;;;11.77;6.03;;;22.60;33.40;;;;;;5095214;28;20445;-69
2022/03/23 12:27:57;;;;;;;12.00;5.80;;;22.60;33.10;;;;;;5093736;28;20555;-69
2022/03/23 12:30:25;;;;;;;13.03;5.20;;;22.60;32.70;;;;;;5093338;28;20471;-69
2022/03/23 12:32:53;;;;;;;11.87;5.23;;;22.60;33.80;;;;;;5093535;28;20457;-69
2022/03/23 12:35:30;;;;;;;11.47;5.43;;;22.60;34.10;;;;;;5090337;28;20425;-69
2022/03/23 12:37:59;;;;;;;13.73;5.27;;;22.60;34.10;;;;;;5094754;28;20454;-69
2022/03/23 12:40:40;;;;;;;8.23;5.30;;;22.60;34.00;;;;;;5075743;28;20419;-69
2022/03/23 12:43:07;;;;;;;10.53;5.63;;;22.60;33.70;;;;;;5091062;28;20422;-69
2022/03/23 12:45:40;;;;;;;10.17;5.60;;;22.50;34.00;;;;;;5091520;28;20453;-69
2022/03/23 12:57:49;;;;;;;7.90;5.20;;;22.50;34.00;;;;;;5082780;28;20419;-69
2022/03/23 12:59:15;;;;;;;11.73;5.77;;;22.40;33.00;;;;;;5091723;28;20804;-69
2022/03/23 13:01:41;;;;;;;9.50;4.97;;;22.40;31.70;;;;;;5085976;28;20549;-69
2022/03/23 13:04:07;;;;;;;10.30;4.93;;;22.40;32.80;;;;;;5086724;28;20869;-69
2022/03/23 13:06:37;;;;;;;7.37;4.77;;;22.40;33.00;;;;;;5090905;28;20685;-68
2022/03/23 13:09:13;;;;;;;8.60;4.80;;;22.40;32.90;;;;;;5092362;28;20175;-69
2022/03/23 13:11:41;;;;;;;9.10;4.80;;;22.40;32.40;;;;;;5093619;28;20932;-68
2022/03/23 13:14:07;;;;;;;7.00;4.53;;;22.40;32.00;;;;;;5093592;28;20488;-68
2022/03/23 13:16:38;;;;;;;9.20;4.80;;;22.30;29.70;;;;;;5093664;28;20460;-68